createdAt,value
2018-02-01T00:00:40.000Z,92
2018-02-01T00:01:40.711Z,92
2018-02-01T00:02:41.411Z,91
2018-02-01T00:03:42.115Z,91
2018-02-01T00:04:42.827Z,92
2018-02-01T00:05:43.542Z,91
2018-02-01T00:06:44.257Z,92
2018-02-01T00:07:44.957Z,91
2018-02-01T00:08:45.659Z,91
2018-02-01T00:09:46.377Z,91
2018-02-01T00:10:47.075Z,91
2018-02-01T00:11:47.776Z,91
2018-02-01T00:12:48.477Z,90
2018-02-01T00:13:49.177Z,90
2018-02-01T00:14:49.879Z,90
2018-02-01T00:15:50.581Z,90
2018-02-01T00:16:51.284Z,90
2018-02-01T00:17:51.987Z,91
2018-02-01T00:18:52.690Z,90
2018-02-01T00:19:53.407Z,90
2018-02-01T00:20:54.104Z,91
2018-02-01T00:21:54.806Z,90
2018-02-01T00:22:55.509Z,91
2018-02-01T00:23:56.211Z,91
2018-02-01T00:24:56.914Z,90
2018-02-01T00:25:57.629Z,90
2018-02-01T00:26:58.332Z,90
2018-02-01T00:27:59.050Z,90
2018-02-01T00:28:59.762Z,90
2018-02-01T00:30:00.465Z,90
2018-02-01T00:31:01.167Z,90
2018-02-01T00:32:01.868Z,90
2018-02-01T00:33:02.570Z,90
2018-02-01T00:34:03.273Z,90
2018-02-01T00:35:03.989Z,90
2018-02-01T00:36:04.694Z,90
2018-02-01T00:37:05.398Z,90
2018-02-01T00:38:06.106Z,90
2018-02-01T00:39:06.807Z,90
2018-02-01T00:40:07.512Z,90
2018-02-01T00:41:08.227Z,90
2018-02-01T00:42:08.930Z,90
2018-02-01T00:43:09.633Z,90
2018-02-01T00:44:10.335Z,90
2018-02-01T00:45:11.038Z,90
2018-02-01T00:46:11.743Z,90
2018-02-01T00:47:12.442Z,90
2018-02-01T00:48:13.145Z,90
2018-02-01T00:49:13.848Z,90
2018-02-01T00:50:14.551Z,90
2018-02-01T00:51:15.252Z,90
2018-02-01T00:52:15.954Z,89
2018-02-01T00:53:16.657Z,90
2018-02-01T00:54:17.360Z,89
2018-02-01T00:55:18.065Z,90
2018-02-01T00:56:18.768Z,90
2018-02-01T00:57:19.470Z,90
2018-02-01T00:58:20.175Z,90
2018-02-01T00:59:20.881Z,90
2018-02-01T01:00:21.580Z,90
2018-02-01T01:01:22.283Z,90
2018-02-01T01:02:22.999Z,90
2018-02-01T01:03:23.703Z,90
2018-02-01T01:04:24.417Z,90
2018-02-01T01:05:25.143Z,90
2018-02-01T01:06:25.867Z,90
2018-02-01T01:07:26.578Z,90
2018-02-01T01:08:27.296Z,90
2018-02-01T01:09:28.019Z,90
2018-02-01T01:10:28.780Z,90
2018-02-01T01:11:29.541Z,90
2018-02-01T01:12:30.308Z,90
2018-02-01T01:13:31.019Z,90
2018-02-01T01:14:31.809Z,90
2018-02-01T01:18:04.502Z,91
2018-02-01T01:19:05.206Z,91
2018-02-01T01:20:05.910Z,91
2018-02-01T01:21:06.615Z,90
2018-02-01T01:22:07.330Z,91
2018-02-01T01:23:08.033Z,91
2018-02-01T01:24:08.735Z,91
2018-02-01T01:25:09.438Z,91
2018-02-01T01:26:10.153Z,91
2018-02-01T01:27:10.871Z,92
2018-02-01T01:28:11.575Z,92
2018-02-01T01:29:12.276Z,92
2018-02-01T01:30:12.979Z,92
2018-02-01T01:31:13.694Z,92
2018-02-01T01:32:14.398Z,92
2018-02-01T01:33:15.100Z,92
2018-02-01T01:34:15.802Z,92
2018-02-01T01:35:16.518Z,91
2018-02-01T01:36:17.219Z,91
2018-02-01T01:37:17.921Z,92
2018-02-01T01:38:18.625Z,92
2018-02-01T01:39:19.340Z,92
2018-02-01T01:40:20.043Z,92
2018-02-01T01:41:20.745Z,93
2018-02-01T01:42:21.447Z,93
2018-02-01T01:43:22.151Z,93
2018-02-01T01:44:22.866Z,93
2018-02-01T01:45:23.567Z,92
2018-02-01T01:46:24.276Z,93
2018-02-01T01:47:24.974Z,92
2018-02-01T01:48:25.676Z,93
2018-02-01T01:49:26.379Z,92
2018-02-01T01:50:27.097Z,92
2018-02-01T01:51:27.813Z,93
2018-02-01T01:52:28.514Z,93
2018-02-01T01:53:29.216Z,92
2018-02-01T01:54:29.919Z,92
2018-02-01T01:55:30.620Z,92
2018-02-01T01:56:31.322Z,92
2018-02-01T01:57:32.024Z,92
2018-02-01T01:58:32.740Z,91
2018-02-01T01:59:33.449Z,92
2018-02-01T02:00:34.159Z,92
2018-02-01T02:01:34.860Z,92
2018-02-01T02:02:35.578Z,92
2018-02-01T02:03:36.284Z,92
2018-02-01T02:04:36.988Z,92
2018-02-01T02:05:37.694Z,93
2018-02-01T02:06:38.394Z,92
2018-02-01T02:07:39.097Z,92
2018-02-01T02:08:39.800Z,92
2018-02-01T02:09:40.503Z,92
2018-02-01T02:10:41.207Z,92
2018-02-01T02:11:41.911Z,92
2018-02-01T02:12:42.614Z,92
2018-02-01T02:13:43.319Z,92
2018-02-01T02:14:44.021Z,92
2018-02-01T02:15:44.727Z,92
2018-02-01T02:16:45.440Z,92
2018-02-01T02:17:46.147Z,92
2018-02-01T02:18:46.858Z,93
2018-02-01T02:19:47.560Z,93
2018-02-01T02:20:48.276Z,93
2018-02-01T02:21:48.981Z,92
2018-02-01T02:22:49.685Z,93
2018-02-01T02:23:50.390Z,93
2018-02-01T02:24:51.094Z,93
2018-02-01T02:25:51.799Z,93
2018-02-01T02:26:52.515Z,92
2018-02-01T02:27:53.217Z,92
2018-02-01T02:28:53.919Z,93
2018-02-01T02:29:54.621Z,93
2018-02-01T02:30:55.323Z,93
2018-02-01T02:31:56.038Z,93
2018-02-01T02:32:56.747Z,92
2018-02-01T02:33:57.459Z,92
2018-02-01T02:34:58.200Z,92
2018-02-01T02:35:58.912Z,92
2018-02-01T02:36:59.627Z,92
2018-02-01T02:38:00.366Z,92
2018-02-01T02:39:01.083Z,92
2018-02-01T02:40:01.802Z,91
2018-02-01T02:41:02.510Z,92
2018-02-01T02:42:03.223Z,92
2018-02-01T02:43:03.939Z,92
2018-02-01T02:44:04.653Z,91
2018-02-01T02:45:05.396Z,91
2018-02-01T02:46:06.119Z,91
2018-02-01T02:47:06.822Z,92
2018-02-01T02:48:07.551Z,92
2018-02-01T02:49:08.263Z,92
2018-02-01T02:50:09.013Z,92
2018-02-01T02:51:09.726Z,92
2018-02-01T02:52:10.441Z,92
2018-02-01T02:53:11.155Z,92
2018-02-01T02:54:11.908Z,92
2018-02-01T02:55:12.632Z,91
2018-02-01T02:56:13.344Z,92
2018-02-01T02:57:14.058Z,91
2018-02-01T02:58:14.784Z,92
2018-02-01T02:59:15.504Z,92
2018-02-01T03:00:16.213Z,92
2018-02-01T03:01:16.925Z,92
2018-02-01T03:02:17.639Z,92
2018-02-01T03:03:18.365Z,92
2018-02-01T03:04:19.077Z,91
2018-02-01T03:05:19.828Z,92
2018-02-01T03:06:20.543Z,92
2018-02-01T03:07:21.269Z,91
2018-02-01T03:08:22.019Z,91
2018-02-01T03:09:22.752Z,91
2018-02-01T03:10:23.463Z,92
2018-02-01T03:11:24.203Z,91
2018-02-01T03:12:24.927Z,92
2018-02-01T03:13:25.681Z,92
2018-02-01T03:14:26.418Z,92
2018-02-01T03:15:27.155Z,92
2018-02-01T03:16:27.868Z,91
2018-02-01T03:17:28.608Z,92
2018-02-01T03:18:29.322Z,91
2018-02-01T03:19:30.071Z,92
2018-02-01T03:20:30.785Z,92
2018-02-01T03:21:31.511Z,91
2018-02-01T03:22:32.227Z,91
2018-02-01T03:23:32.978Z,91
2018-02-01T03:24:33.728Z,91
2018-02-01T03:25:34.454Z,91
2018-02-01T03:26:35.218Z,91
2018-02-01T03:27:35.946Z,91
2018-02-01T03:28:36.671Z,91
2018-02-01T03:29:37.397Z,92
2018-02-01T03:30:38.148Z,92
2018-02-01T03:31:38.885Z,92
2018-02-01T03:32:39.613Z,92
2018-02-01T03:33:40.338Z,92
2018-02-01T03:34:41.053Z,92
2018-02-01T03:35:41.778Z,92
2018-02-01T03:36:42.542Z,92
2018-02-01T03:37:43.255Z,92
2018-02-01T03:38:43.982Z,91
2018-02-01T03:39:44.735Z,91
2018-02-01T03:40:45.474Z,91
2018-02-01T03:41:46.190Z,92
2018-02-01T03:42:46.942Z,91
2018-02-01T03:43:47.659Z,91
2018-02-01T03:44:48.412Z,91
2018-02-01T03:45:49.127Z,92
2018-02-01T03:46:49.842Z,92
2018-02-01T03:47:50.593Z,92
2018-02-01T03:48:51.304Z,92
2018-02-01T03:49:52.020Z,92
2018-02-01T03:50:52.734Z,91
2018-02-01T03:51:53.446Z,92
2018-02-01T03:52:54.173Z,92
2018-02-01T03:53:54.889Z,91
2018-02-01T03:54:55.616Z,92
2018-02-01T03:55:56.366Z,92
2018-02-01T03:56:57.082Z,92
2018-02-01T03:57:57.798Z,92
2018-02-01T03:58:58.537Z,92
2018-02-01T03:59:59.251Z,92
2018-02-01T04:00:59.977Z,92
2018-02-01T04:02:00.690Z,91
2018-02-01T04:03:01.431Z,92
2018-02-01T04:04:02.156Z,91
2018-02-01T04:05:02.882Z,92
2018-02-01T04:06:03.600Z,92
2018-02-01T04:07:04.346Z,91
2018-02-01T04:08:05.071Z,91
2018-02-01T04:09:05.833Z,92
2018-02-01T04:10:06.548Z,91
2018-02-01T04:11:07.264Z,92
2018-02-01T04:12:08.016Z,92
2018-02-01T04:13:08.728Z,92
2018-02-01T04:14:09.455Z,92
2018-02-01T04:15:10.168Z,92
2018-02-01T04:16:10.894Z,92
2018-02-01T04:17:11.606Z,92
2018-02-01T04:18:12.354Z,92
2018-02-01T04:19:13.067Z,91
2018-02-01T04:20:13.780Z,92
2018-02-01T04:21:14.494Z,92
2018-02-01T04:22:15.207Z,92
2018-02-01T04:23:15.934Z,91
2018-02-01T04:24:16.659Z,92
2018-02-01T04:25:17.375Z,92
2018-02-01T04:26:18.093Z,91
2018-02-01T04:27:18.842Z,91
2018-02-01T04:28:19.591Z,91
2018-02-01T04:29:20.306Z,91
2018-02-01T04:30:21.055Z,91
2018-02-01T04:31:21.771Z,92
2018-02-01T04:32:22.485Z,91
2018-02-01T04:33:23.201Z,91
2018-02-01T04:34:23.939Z,91
2018-02-01T04:35:24.665Z,92
2018-02-01T04:36:25.380Z,92
2018-02-01T04:37:26.168Z,91
2018-02-01T04:38:26.846Z,91
2018-02-01T04:39:27.560Z,92
2018-02-01T04:40:28.298Z,92
2018-02-01T04:41:29.038Z,92
2018-02-01T04:42:29.778Z,92
2018-02-01T04:43:30.506Z,92
2018-02-01T04:44:31.219Z,92
2018-02-01T04:45:31.956Z,92
2018-02-01T04:46:32.683Z,92
2018-02-01T04:47:33.400Z,92
2018-02-01T04:48:34.142Z,92
2018-02-01T04:49:34.854Z,92
2018-02-01T04:50:35.605Z,92
2018-02-01T04:51:36.320Z,92
2018-02-01T04:52:37.036Z,92
2018-02-01T04:53:37.775Z,92
2018-02-01T04:54:38.501Z,92
2018-02-01T04:55:39.217Z,92
2018-02-01T04:56:39.931Z,92
2018-02-01T04:57:40.656Z,92
2018-02-01T04:58:41.405Z,92
2018-02-01T04:59:42.156Z,93
2018-02-01T05:00:42.868Z,93
2018-02-01T05:01:43.618Z,93
2018-02-01T05:02:44.331Z,93
2018-02-01T05:03:45.056Z,93
2018-02-01T05:04:45.781Z,93
2018-02-01T05:05:46.492Z,93
2018-02-01T05:06:47.208Z,93
2018-02-01T05:07:47.922Z,93
2018-02-01T05:08:48.648Z,93
2018-02-01T05:09:49.363Z,93
2018-02-01T05:10:50.090Z,93
2018-02-01T05:11:50.840Z,93
2018-02-01T05:12:51.589Z,93
2018-02-01T05:13:52.340Z,93
2018-02-01T05:14:53.054Z,93
2018-02-01T05:15:53.768Z,93
2018-02-01T05:16:54.480Z,93
2018-02-01T05:17:55.194Z,93
2018-02-01T05:18:55.909Z,93
2018-02-01T05:19:56.635Z,93
2018-02-01T05:20:57.349Z,93
2018-02-01T05:21:58.128Z,93
2018-02-01T05:22:58.815Z,93
2018-02-01T05:23:59.528Z,93
2018-02-01T05:25:00.242Z,93
2018-02-01T05:26:00.984Z,93
2018-02-01T05:27:01.723Z,93
2018-02-01T05:28:02.438Z,94
2018-02-01T05:29:03.178Z,93
2018-02-01T05:30:03.904Z,93
2018-02-01T05:31:04.654Z,93
2018-02-01T05:32:05.379Z,93
2018-02-01T05:33:06.129Z,93
2018-02-01T05:34:06.868Z,93
2018-02-01T05:35:07.593Z,93
2018-02-01T05:36:08.308Z,93
2018-02-01T05:37:09.021Z,93
2018-02-01T05:38:09.769Z,93
2018-02-01T05:39:10.494Z,93
2018-02-01T05:40:11.244Z,93
2018-02-01T05:41:11.958Z,93
2018-02-01T05:42:12.682Z,92
2018-02-01T05:43:13.399Z,93
2018-02-01T05:44:14.123Z,92
2018-02-01T05:45:14.835Z,93
2018-02-01T05:46:15.551Z,92
2018-02-01T05:47:16.274Z,92
2018-02-01T05:48:16.987Z,93
2018-02-01T05:49:17.702Z,93
2018-02-01T05:50:18.428Z,93
2018-02-01T05:51:19.143Z,93
2018-02-01T05:52:19.869Z,93
2018-02-01T05:53:20.582Z,93
2018-02-01T05:54:21.322Z,93
2018-02-01T05:55:22.035Z,93
2018-02-01T05:56:22.759Z,93
2018-02-01T05:57:23.474Z,93
2018-02-01T05:58:24.224Z,93
2018-02-01T05:59:24.936Z,92
2018-02-01T06:00:25.685Z,92
2018-02-01T06:01:26.413Z,93
2018-02-01T06:02:27.123Z,92
2018-02-01T06:03:27.837Z,93
2018-02-01T06:04:28.638Z,93
2018-02-01T06:05:29.329Z,93
2018-02-01T06:06:30.045Z,93
2018-02-01T06:07:30.759Z,92
2018-02-01T06:08:31.483Z,92
2018-02-01T06:09:32.209Z,93
2018-02-01T06:10:32.959Z,93
2018-02-01T06:11:33.698Z,92
2018-02-01T06:12:34.410Z,92
2018-02-01T06:13:35.137Z,92
2018-02-01T06:14:35.850Z,92
2018-02-01T06:15:36.587Z,92
2018-02-01T06:16:37.314Z,93
2018-02-01T06:17:38.062Z,93
2018-02-01T06:18:38.775Z,93
2018-02-01T06:19:39.489Z,93
2018-02-01T06:20:40.214Z,93
2018-02-01T06:21:40.930Z,93
2018-02-01T06:22:41.643Z,92
2018-02-01T06:23:42.369Z,93
2018-02-01T06:24:43.082Z,93
2018-02-01T06:25:43.794Z,93
2018-02-01T06:26:44.506Z,93
2018-02-01T06:27:45.243Z,93
2018-02-01T06:28:45.955Z,92
2018-02-01T06:29:46.677Z,93
2018-02-01T06:30:47.389Z,92
2018-02-01T06:31:48.100Z,93
2018-02-01T06:32:48.814Z,93
2018-02-01T06:33:49.552Z,92
2018-02-01T06:34:50.293Z,92
2018-02-01T06:35:51.033Z,93
2018-02-01T06:36:51.765Z,93
2018-02-01T06:37:52.481Z,93
2018-02-01T06:38:53.218Z,93
2018-02-01T06:39:53.952Z,93
2018-02-01T06:40:54.665Z,93
2018-02-01T06:41:55.378Z,92
2018-02-01T06:42:56.089Z,92
2018-02-01T06:43:56.812Z,92
2018-02-01T06:44:57.527Z,92
2018-02-01T06:45:58.266Z,92
2018-02-01T06:46:59.003Z,93
2018-02-01T06:47:59.720Z,92
2018-02-01T06:49:00.466Z,93
2018-02-01T06:50:01.191Z,92
2018-02-01T06:51:01.916Z,92
2018-02-01T06:52:02.666Z,92
2018-02-01T06:53:03.380Z,93
2018-02-01T06:54:04.132Z,93
2018-02-01T06:55:04.845Z,92
2018-02-01T06:56:05.561Z,93
2018-02-01T06:57:06.274Z,93
2018-02-01T06:58:06.999Z,92
2018-02-01T06:59:07.751Z,92
2018-02-01T07:00:08.476Z,92
2018-02-01T07:01:09.228Z,93
2018-02-01T07:02:09.968Z,92
2018-02-01T07:03:10.682Z,92
2018-02-01T07:04:11.411Z,92
2018-02-01T07:05:12.130Z,92
2018-02-01T07:06:12.854Z,92
2018-02-01T07:07:13.570Z,92
2018-02-01T07:08:14.285Z,92
2018-02-01T07:09:15.003Z,92
2018-02-01T07:10:15.716Z,92
2018-02-01T07:11:16.430Z,92
2018-02-01T07:12:17.148Z,93
2018-02-01T07:13:17.864Z,93
2018-02-01T07:14:18.593Z,92
2018-02-01T07:15:19.322Z,92
2018-02-01T07:16:20.037Z,92
2018-02-01T07:17:20.755Z,92
2018-02-01T07:18:21.481Z,92
2018-02-01T07:19:22.208Z,92
2018-02-01T07:20:22.927Z,92
2018-02-01T07:21:23.643Z,92
2018-02-01T07:22:24.374Z,92
2018-02-01T07:23:25.089Z,92
2018-02-01T07:24:25.810Z,92
2018-02-01T07:25:26.527Z,92
2018-02-01T07:26:27.246Z,92
2018-02-01T07:27:27.974Z,92
2018-02-01T07:28:28.692Z,92
2018-02-01T07:29:29.422Z,92
2018-02-01T07:30:30.139Z,93
2018-02-01T07:31:30.874Z,92
2018-02-01T07:32:31.578Z,93
2018-02-01T07:33:32.308Z,93
2018-02-01T07:34:33.073Z,92
2018-02-01T07:35:33.803Z,93
2018-02-01T07:36:34.519Z,92
2018-02-01T07:37:35.249Z,93
2018-02-01T07:38:35.966Z,93
2018-02-01T07:39:36.711Z,93
2018-02-01T07:40:37.441Z,93
2018-02-01T07:41:38.207Z,94
2018-02-01T07:42:38.961Z,94
2018-02-01T07:43:39.681Z,93
2018-02-01T07:44:40.396Z,93
2018-02-01T07:45:41.155Z,93
2018-02-01T07:46:41.906Z,93
2018-02-01T07:47:42.636Z,93
2018-02-01T07:48:43.391Z,94
2018-02-01T07:49:44.108Z,94
2018-02-01T07:50:44.826Z,94
2018-02-01T07:51:45.546Z,94
2018-02-01T07:52:46.274Z,95
2018-02-01T07:53:46.987Z,96
2018-02-01T07:54:47.731Z,97
2018-02-01T07:55:48.451Z,97
2018-02-01T07:56:49.174Z,98
2018-02-01T07:57:49.905Z,98
2018-02-01T07:58:50.636Z,97
2018-02-01T07:59:51.367Z,97
2018-02-01T08:00:52.086Z,98
2018-02-01T08:01:52.805Z,97
2018-02-01T08:02:53.525Z,97
2018-02-01T08:03:54.269Z,96
2018-02-01T08:04:54.992Z,98
2018-02-01T08:05:55.724Z,97
2018-02-01T08:06:56.456Z,97
2018-02-01T08:07:57.176Z,97
2018-02-01T08:08:57.930Z,97
2018-02-01T08:09:58.659Z,95
2018-02-01T08:10:59.380Z,95
2018-02-01T08:12:00.102Z,96
2018-02-01T08:13:00.861Z,97
2018-02-01T08:14:01.544Z,97
2018-02-01T08:15:02.275Z,97
2018-02-01T08:16:03.008Z,97
2018-02-01T08:17:03.741Z,98
2018-02-01T08:18:04.498Z,98
2018-02-01T08:19:05.219Z,99
2018-02-01T08:20:05.953Z,100
2018-02-01T08:21:06.675Z,100
2018-02-01T08:22:07.395Z,100
2018-02-01T08:23:08.119Z,100
2018-02-01T08:24:08.847Z,100
2018-02-01T08:25:09.591Z,100
2018-02-01T08:26:10.339Z,100
2018-02-01T08:27:11.063Z,100
2018-02-01T08:28:11.784Z,99
2018-02-01T08:29:12.508Z,100
2018-02-01T08:30:13.245Z,100
2018-02-01T08:31:13.979Z,100
2018-02-01T08:32:14.737Z,100
2018-02-01T08:33:15.485Z,100
2018-02-01T08:34:16.210Z,100
2018-02-01T08:35:16.933Z,100
2018-02-01T08:36:17.658Z,100
2018-02-01T08:37:18.396Z,100
2018-02-01T08:38:19.134Z,100
2018-02-01T08:39:19.861Z,100
2018-02-01T08:40:20.586Z,100
2018-02-01T08:41:21.316Z,100
2018-02-01T08:42:22.039Z,100
2018-02-01T08:43:22.777Z,100
2018-02-01T08:44:23.514Z,100
2018-02-01T08:45:24.277Z,100
2018-02-01T08:46:25.004Z,100
2018-02-01T08:47:25.767Z,100
2018-02-01T08:48:26.490Z,100
2018-02-01T08:49:27.218Z,100
2018-02-01T08:50:27.946Z,100
2018-02-01T08:51:28.677Z,100
2018-02-01T08:52:29.412Z,100
2018-02-01T08:53:30.144Z,100
2018-02-01T08:54:30.913Z,100
2018-02-01T08:55:31.641Z,100
2018-02-01T08:56:32.369Z,100
2018-02-01T08:57:33.108Z,100
2018-02-01T08:58:33.874Z,100
2018-02-01T08:59:34.604Z,100
2018-02-01T09:00:35.334Z,100
2018-02-01T09:01:36.064Z,100
2018-02-01T09:02:36.794Z,100
2018-02-01T09:03:37.523Z,100
2018-02-01T09:04:38.250Z,100
2018-02-01T09:05:39.005Z,99
2018-02-01T09:06:39.732Z,99
2018-02-01T09:07:40.486Z,99
2018-02-01T09:08:41.226Z,99
2018-02-01T09:09:41.956Z,100
2018-02-01T09:10:42.681Z,99
2018-02-01T09:11:43.434Z,100
2018-02-01T09:12:44.167Z,100
2018-02-01T09:13:44.915Z,99
2018-02-01T09:14:45.671Z,99
2018-02-01T09:15:46.403Z,99
2018-02-01T09:16:47.146Z,100
2018-02-01T09:17:47.885Z,99
2018-02-01T09:18:48.625Z,99
2018-02-01T09:19:49.361Z,100
2018-02-01T09:20:50.113Z,99
2018-02-01T09:21:50.854Z,98
2018-02-01T09:22:51.584Z,99
2018-02-01T09:23:52.325Z,97
2018-02-01T09:24:53.066Z,98
2018-02-01T09:25:53.794Z,97
2018-02-01T09:26:54.525Z,98
2018-02-01T09:27:55.269Z,99
2018-02-01T09:28:56.002Z,98
2018-02-01T09:29:56.746Z,98
2018-02-01T09:30:57.512Z,98
2018-02-01T09:31:58.244Z,98
2018-02-01T09:32:58.976Z,97
2018-02-01T09:33:59.720Z,98
2018-02-01T09:35:00.447Z,98
2018-02-01T09:36:01.177Z,96
2018-02-01T09:37:01.908Z,97
2018-02-01T09:38:02.651Z,96
2018-02-01T09:39:03.420Z,96
2018-02-01T09:40:04.163Z,95
2018-02-01T09:41:04.933Z,96
2018-02-01T09:42:05.668Z,94
2018-02-01T09:43:06.408Z,96
2018-02-01T09:44:07.177Z,96
2018-02-01T09:45:07.917Z,96
2018-02-01T09:46:08.646Z,96
2018-02-01T09:47:09.388Z,95
2018-02-01T09:48:10.167Z,95
2018-02-01T09:49:10.932Z,96
2018-02-01T09:50:11.663Z,97
2018-02-01T09:51:12.404Z,97
2018-02-01T09:52:13.134Z,97
2018-02-01T09:53:13.881Z,96
2018-02-01T09:54:14.654Z,96
2018-02-01T09:55:15.382Z,96
2018-02-01T09:56:16.123Z,95
2018-02-01T09:57:16.892Z,95
2018-02-01T09:58:17.643Z,95
2018-02-01T09:59:18.372Z,96
2018-02-01T10:00:19.110Z,96
2018-02-01T10:01:19.884Z,95
2018-02-01T10:02:20.650Z,96
2018-02-01T10:03:21.399Z,96
2018-02-01T10:04:22.160Z,96
2018-02-01T10:05:22.899Z,97
2018-02-01T10:06:23.628Z,96
2018-02-01T10:07:24.352Z,97
2018-02-01T10:08:25.079Z,96
2018-02-01T10:09:25.817Z,96
2018-02-01T10:10:26.554Z,97
2018-02-01T10:11:27.283Z,97
2018-02-01T10:12:28.012Z,97
2018-02-01T10:13:28.739Z,96
2018-02-01T10:14:29.468Z,97
2018-02-01T10:15:30.233Z,96
2018-02-01T10:16:30.959Z,96
2018-02-01T10:17:31.686Z,96
2018-02-01T10:18:32.415Z,96
2018-02-01T10:19:33.168Z,97
2018-02-01T10:20:33.922Z,97
2018-02-01T10:21:34.645Z,96
2018-02-01T10:22:35.382Z,97
2018-02-01T10:23:36.107Z,96
2018-02-01T10:24:36.859Z,97
2018-02-01T10:25:37.597Z,98
2018-02-01T10:26:38.335Z,97
2018-02-01T10:27:39.076Z,97
2018-02-01T10:28:39.804Z,96
2018-02-01T10:29:40.535Z,96
2018-02-01T10:30:41.261Z,96
2018-02-01T10:31:41.999Z,96
2018-02-01T10:32:42.724Z,96
2018-02-01T10:33:43.451Z,95
2018-02-01T10:34:44.200Z,96
2018-02-01T10:35:44.925Z,96
2018-02-01T10:36:45.675Z,96
2018-02-01T10:37:46.411Z,96
2018-02-01T10:38:47.140Z,96
2018-02-01T10:39:47.887Z,96
2018-02-01T10:40:48.609Z,96
2018-02-01T10:41:49.344Z,96
2018-02-01T10:42:50.079Z,96
2018-02-01T10:43:50.802Z,96
2018-02-01T10:44:51.523Z,96
2018-02-01T10:45:52.259Z,96
2018-02-01T10:46:52.983Z,95
2018-02-01T10:47:53.709Z,95
2018-02-01T10:48:54.441Z,95
2018-02-01T10:49:55.175Z,96
2018-02-01T10:50:55.930Z,96
2018-02-01T10:51:56.647Z,96
2018-02-01T10:52:57.381Z,96
2018-02-01T10:53:58.149Z,96
2018-02-01T10:54:58.885Z,96
2018-02-01T10:55:59.604Z,95
2018-02-01T10:57:00.325Z,96
2018-02-01T10:58:01.047Z,96
2018-02-01T10:59:01.781Z,96
2018-02-01T11:00:02.598Z,96
2018-02-01T11:01:03.230Z,96
2018-02-01T11:02:03.963Z,95
2018-02-01T11:03:04.683Z,95
2018-02-01T11:04:05.403Z,95
2018-02-01T11:05:06.126Z,94
2018-02-01T11:06:06.846Z,94
2018-02-01T11:07:07.566Z,94
2018-02-01T11:08:08.289Z,95
2018-02-01T11:09:09.007Z,95
2018-02-01T11:10:09.728Z,94
2018-02-01T11:11:10.472Z,95
2018-02-01T11:12:11.192Z,94
2018-02-01T11:13:11.921Z,95
2018-02-01T11:14:12.640Z,94
2018-02-01T11:15:13.360Z,93
2018-02-01T11:16:14.079Z,95
2018-02-01T11:17:14.823Z,97
2018-02-01T11:18:15.582Z,97
2018-02-01T11:19:16.310Z,97
2018-02-01T11:20:17.031Z,96
2018-02-01T11:21:17.751Z,97
2018-02-01T11:22:18.469Z,97
2018-02-01T11:23:19.204Z,97
2018-02-01T11:24:19.919Z,97
2018-02-01T11:25:20.653Z,97
2018-02-01T11:26:21.410Z,96
2018-02-01T11:27:22.130Z,97
2018-02-01T11:28:22.875Z,97
2018-02-01T11:29:23.606Z,97
2018-02-01T11:30:24.338Z,97
2018-02-01T11:31:25.053Z,97
2018-02-01T11:32:25.772Z,96
2018-02-01T11:33:26.520Z,96
2018-02-01T11:34:27.246Z,97
2018-02-01T11:35:27.965Z,97
2018-02-01T11:36:28.684Z,96
2018-02-01T11:37:29.417Z,97
2018-02-01T11:38:30.136Z,98
2018-02-01T11:39:30.879Z,97
2018-02-01T11:40:31.600Z,97
2018-02-01T11:41:32.318Z,97
2018-02-01T11:42:33.049Z,97
2018-02-01T11:43:33.767Z,96
2018-02-01T11:44:34.515Z,97
2018-02-01T11:45:35.236Z,96
2018-02-01T11:46:35.981Z,97
2018-02-01T11:47:36.712Z,96
2018-02-01T11:48:37.428Z,96
2018-02-01T11:49:38.172Z,96
2018-02-01T11:50:38.890Z,95
2018-02-01T11:51:39.608Z,95
2018-02-01T11:52:40.337Z,93
2018-02-01T11:53:41.068Z,93
2018-02-01T11:54:41.788Z,93
2018-02-01T11:55:42.506Z,92
2018-02-01T11:56:43.262Z,92
2018-02-01T11:57:43.990Z,91
2018-02-01T11:58:44.720Z,92
2018-02-01T11:59:45.453Z,90
2018-02-01T12:00:46.222Z,93
2018-02-01T12:01:46.942Z,92
2018-02-01T12:02:47.677Z,92
2018-02-01T12:03:48.408Z,94
2018-02-01T12:04:49.143Z,93
2018-02-01T12:05:49.893Z,93
2018-02-01T12:06:50.617Z,92
2018-02-01T12:07:51.342Z,92
2018-02-01T12:08:52.140Z,93
2018-02-01T12:09:52.817Z,93
2018-02-01T12:10:53.539Z,94
2018-02-01T12:11:54.259Z,93
2018-02-01T12:12:54.992Z,95
2018-02-01T12:13:55.712Z,93
2018-02-01T12:14:56.433Z,94
2018-02-01T12:15:57.183Z,94
2018-02-01T12:16:57.902Z,94
2018-02-01T12:17:58.636Z,94
2018-02-01T12:18:59.359Z,95
2018-02-01T12:20:00.083Z,95
2018-02-01T12:21:00.842Z,97
2018-02-01T12:22:01.579Z,99
2018-02-01T12:23:02.315Z,100
2018-02-01T12:24:03.045Z,100
2018-02-01T12:25:03.782Z,100
2018-02-01T12:26:04.508Z,99
2018-02-01T12:27:05.236Z,99
2018-02-01T12:28:05.987Z,98
2018-02-01T12:29:06.738Z,99
2018-02-01T12:30:07.469Z,98
2018-02-01T12:31:08.200Z,98
2018-02-01T12:32:08.927Z,97
2018-02-01T12:33:09.661Z,97
2018-02-01T12:34:10.433Z,97
2018-02-01T12:35:11.204Z,96
2018-02-01T12:36:11.964Z,97
2018-02-01T12:37:12.688Z,96
2018-02-01T12:38:13.409Z,97
2018-02-01T12:39:14.144Z,96
2018-02-01T12:40:14.904Z,95
2018-02-01T12:41:15.638Z,97
2018-02-01T12:42:16.410Z,97
2018-02-01T12:43:17.146Z,96
2018-02-01T12:44:17.871Z,97
2018-02-01T12:45:18.595Z,96
2018-02-01T12:46:19.323Z,97
2018-02-01T12:47:20.070Z,98
2018-02-01T12:48:20.810Z,97
2018-02-01T12:49:21.537Z,97
2018-02-01T12:50:22.262Z,97
2018-02-01T12:51:23.011Z,97
2018-02-01T12:52:23.733Z,97
2018-02-01T12:53:24.487Z,97
2018-02-01T12:54:25.211Z,96
2018-02-01T12:55:25.944Z,97
2018-02-01T12:56:26.679Z,97
2018-02-01T12:57:27.439Z,97
2018-02-01T12:58:28.172Z,97
2018-02-01T12:59:28.907Z,96
2018-02-01T13:00:29.631Z,96
2018-02-01T13:01:30.396Z,96
2018-02-01T13:02:31.075Z,96
2018-02-01T13:03:31.800Z,97
2018-02-01T13:04:32.548Z,96
2018-02-01T13:05:33.272Z,95
2018-02-01T13:06:34.005Z,94
2018-02-01T13:07:34.764Z,94
2018-02-01T13:08:35.497Z,96
2018-02-01T13:09:36.267Z,94
2018-02-01T13:10:37.001Z,96
2018-02-01T13:11:37.733Z,95
2018-02-01T13:12:38.468Z,95
2018-02-01T13:13:39.187Z,93
2018-02-01T13:14:39.910Z,95
2018-02-01T13:15:40.631Z,94
2018-02-01T13:16:41.353Z,94
2018-02-01T13:17:42.084Z,92
2018-02-01T13:18:42.840Z,93
2018-02-01T13:19:43.574Z,93
2018-02-01T13:20:44.304Z,92
2018-02-01T13:21:45.026Z,93
2018-02-01T13:22:45.773Z,93
2018-02-01T13:23:46.493Z,93
2018-02-01T13:24:47.226Z,93
2018-02-01T13:25:47.947Z,93
2018-02-01T13:26:48.678Z,92
2018-02-01T13:27:49.397Z,91
2018-02-01T13:28:50.152Z,91
2018-02-01T13:29:50.884Z,90
2018-02-01T13:30:51.605Z,90
2018-02-01T13:31:52.336Z,91
2018-02-01T13:32:53.056Z,91
2018-02-01T13:33:53.776Z,89
2018-02-01T13:34:54.507Z,90
2018-02-01T13:35:55.230Z,89
2018-02-01T13:36:55.950Z,88
2018-02-01T13:37:56.667Z,88
2018-02-01T13:38:57.389Z,88
2018-02-01T13:39:58.118Z,88
2018-02-01T13:40:58.842Z,88
2018-02-01T13:41:59.590Z,89
2018-02-01T13:43:00.310Z,90
2018-02-01T13:44:01.033Z,90
2018-02-01T13:45:01.774Z,90
2018-02-01T13:46:02.502Z,89
2018-02-01T13:47:03.224Z,88
2018-02-01T13:48:03.969Z,88
2018-02-01T13:49:04.701Z,88
2018-02-01T13:50:05.431Z,88
2018-02-01T13:51:06.199Z,88
2018-02-01T13:52:06.920Z,88
2018-02-01T13:53:07.653Z,88
2018-02-01T13:54:08.372Z,88
2018-02-01T13:55:09.092Z,88
2018-02-01T13:56:09.836Z,88
2018-02-01T13:57:10.554Z,88
2018-02-01T13:58:11.301Z,88
2018-02-01T13:59:12.050Z,88
2018-02-01T14:00:12.766Z,88
2018-02-01T14:01:13.511Z,88
2018-02-01T14:02:14.268Z,88
2018-02-01T14:03:14.987Z,89
2018-02-01T14:04:15.709Z,88
2018-02-01T14:05:16.439Z,88
2018-02-01T14:06:17.157Z,88
2018-02-01T14:07:17.886Z,88
2018-02-01T14:08:18.605Z,88
2018-02-01T14:09:19.323Z,88
2018-02-01T14:10:20.048Z,87
2018-02-01T14:11:20.763Z,87
2018-02-01T14:12:21.508Z,87
2018-02-01T14:13:22.237Z,88
2018-02-01T14:14:22.956Z,88
2018-02-01T14:15:23.676Z,88
2018-02-01T14:16:24.422Z,88
2018-02-01T14:17:25.153Z,88
2018-02-01T14:18:25.884Z,88
2018-02-01T14:19:26.614Z,88
2018-02-01T14:20:27.382Z,88
2018-02-01T14:21:28.139Z,88
2018-02-01T14:22:28.870Z,89
2018-02-01T14:23:29.624Z,88
2018-02-01T14:24:30.354Z,89
2018-02-01T14:25:31.073Z,89
2018-02-01T14:26:31.855Z,88